createdAt,value
2022-09-22T00:01:28.257Z,8.14
2022-09-22T00:03:58.919Z,8.10
2022-09-22T00:06:29.779Z,8.09
2022-09-22T00:09:02.305Z,8.07
2022-09-22T00:11:33.704Z,8.00
2022-09-22T00:14:16.466Z,8.00
2022-09-22T00:16:48.483Z,8.00
2022-09-22T00:19:22.525Z,8.01
2022-09-22T00:21:50.827Z,7.99
2022-09-22T00:24:19.598Z,7.95
2022-09-22T00:26:47.072Z,7.96
2022-09-22T00:29:17.310Z,7.96
2022-09-22T00:31:47.006Z,7.97
2022-09-22T00:34:22.990Z,7.95
2022-09-22T00:36:50.470Z,7.93
2022-09-22T00:39:18.686Z,8.01
2022-09-22T00:41:51.352Z,8.00
2022-09-22T00:44:21.697Z,8.01
2022-09-22T00:47:13.929Z,8.03
2022-09-22T00:50:02.909Z,8.02
2022-09-22T00:52:38.421Z,8.05
2022-09-22T00:55:12.140Z,8.04
2022-09-22T00:57:41.092Z,8.04
2022-09-22T01:00:10.613Z,8.01
2022-09-22T01:02:41.321Z,8.10
2022-09-22T01:05:09.467Z,7.99
2022-09-22T01:07:37.407Z,7.95
2022-09-22T01:10:04.949Z,7.89
2022-09-22T01:12:32.844Z,7.96
2022-09-22T01:15:18.630Z,7.91
2022-09-22T01:17:48.816Z,7.84
2022-09-22T01:20:50.440Z,7.88
2022-09-22T01:23:24.527Z,7.82
2022-09-22T01:26:07.288Z,7.68
2022-09-22T01:29:02.330Z,7.63
2022-09-22T01:31:34.901Z,7.55
2022-09-22T01:34:12.418Z,7.49
2022-09-22T01:36:49.710Z,7.44
2022-09-22T01:39:28.213Z,7.39
2022-09-22T01:42:05.950Z,7.39
2022-09-22T01:44:38.030Z,7.42
2022-09-22T01:47:14.207Z,7.43
2022-09-22T01:49:48.019Z,7.40
2022-09-22T01:52:26.665Z,7.37
2022-09-22T01:55:11.929Z,7.39
2022-09-22T01:57:44.565Z,7.35
2022-09-22T02:00:12.207Z,7.35
2022-09-22T02:02:54.612Z,7.33
2022-09-22T02:05:32.399Z,7.30
2022-09-22T02:08:03.334Z,7.29
2022-09-22T02:10:36.837Z,7.29
2022-09-22T02:13:04.140Z,7.30
2022-09-22T02:15:50.374Z,7.34
2022-09-22T02:18:27.971Z,7.28
2022-09-22T02:20:56.197Z,7.32
2022-09-22T02:23:23.347Z,7.29
2022-09-22T02:25:51.831Z,7.22
2022-09-22T02:28:25.072Z,7.18
2022-09-22T02:31:17.961Z,7.13
2022-09-22T02:33:42.155Z,7.12
2022-09-22T02:36:29.853Z,7.08
2022-09-22T02:39:03.898Z,7.07
2022-09-22T02:41:52.630Z,6.99
2022-09-22T02:44:32.027Z,6.93
2022-09-22T02:47:09.732Z,6.95
2022-09-22T02:49:37.338Z,6.93
2022-09-22T02:52:10.732Z,6.90
2022-09-22T02:54:39.255Z,6.93
2022-09-22T02:57:08.877Z,6.97
2022-09-22T02:59:35.988Z,7.11
2022-09-22T03:02:03.352Z,7.22
2022-09-22T03:04:30.964Z,7.00
2022-09-22T03:06:58.215Z,7.10
2022-09-22T03:09:25.324Z,7.00
2022-09-22T03:11:52.447Z,6.91
2022-09-22T03:14:19.645Z,6.85
2022-09-22T03:16:46.800Z,6.87
2022-09-22T03:19:14.024Z,6.92
2022-09-22T03:21:41.231Z,6.87
2022-09-22T03:24:08.355Z,6.83
2022-09-22T03:26:35.585Z,6.76
2022-09-22T03:29:02.783Z,6.71
2022-09-22T03:31:29.847Z,6.80
2022-09-22T03:33:56.952Z,6.64
2022-09-22T03:36:24.155Z,6.58
2022-09-22T03:38:52.086Z,6.64
2022-09-22T03:41:19.489Z,6.66
2022-09-22T03:43:46.670Z,6.66
2022-09-22T03:46:14.388Z,6.60
2022-09-22T03:48:44.983Z,6.67
2022-09-22T03:51:12.831Z,6.64
2022-09-22T03:53:39.990Z,6.57
2022-09-22T03:56:08.392Z,6.57
2022-09-22T03:58:36.260Z,6.56
2022-09-22T04:01:05.053Z,6.55
2022-09-22T04:03:32.544Z,6.50
2022-09-22T04:05:59.897Z,6.46
2022-09-22T04:08:26.999Z,6.47
2022-09-22T04:10:54.243Z,6.51
2022-09-22T04:13:21.402Z,6.49
2022-09-22T04:15:48.544Z,6.43
2022-09-22T04:18:15.910Z,6.33
2022-09-22T04:20:44.358Z,6.27
2022-09-22T04:23:12.446Z,6.14
2022-09-22T04:25:39.864Z,6.10
2022-09-22T04:28:07.681Z,6.05
2022-09-22T04:30:37.194Z,6.05
2022-09-22T04:33:04.843Z,6.03
2022-09-22T04:35:33.239Z,5.99
2022-09-22T04:38:00.779Z,6.03
2022-09-22T04:40:28.761Z,6.01
2022-09-22T04:42:56.010Z,5.97
2022-09-22T04:45:23.784Z,5.94
2022-09-22T04:47:53.026Z,5.96
2022-09-22T04:50:22.644Z,5.95
2022-09-22T04:52:52.854Z,5.87
2022-09-22T04:55:21.321Z,5.77
2022-09-22T04:57:49.484Z,5.76
2022-09-22T05:00:17.447Z,5.74
2022-09-22T05:02:44.576Z,5.84
2022-09-22T05:05:12.961Z,5.87
2022-09-22T05:07:45.890Z,5.91
2022-09-22T05:10:15.020Z,5.99
2022-09-22T05:12:42.939Z,5.97
2022-09-22T05:15:10.949Z,5.96
2022-09-22T05:17:46.337Z,5.93
2022-09-22T05:20:13.908Z,5.93
2022-09-22T05:22:41.777Z,6.02
2022-09-22T05:25:11.313Z,6.11
2022-09-22T05:27:50.084Z,6.13
2022-09-22T05:30:18.517Z,6.22
2022-09-22T05:32:47.249Z,6.20
2022-09-22T05:35:18.094Z,6.24
2022-09-22T05:37:51.074Z,6.25
2022-09-22T05:40:19.102Z,6.22
2022-09-22T05:42:49.171Z,6.20
2022-09-22T05:45:18.312Z,6.19
2022-09-22T05:47:46.295Z,6.15
2022-09-22T05:50:14.569Z,6.07
2022-09-22T05:52:41.598Z,6.02
2022-09-22T05:55:09.255Z,6.01
2022-09-22T05:57:37.241Z,6.02
2022-09-22T06:00:14.241Z,6.08
2022-09-22T06:02:44.362Z,6.14
2022-09-22T06:05:11.851Z,6.17
2022-09-22T06:07:54.267Z,6.21
2022-09-22T06:10:21.660Z,6.29
2022-09-22T06:12:48.792Z,6.30
2022-09-22T06:15:15.998Z,6.44
2022-09-22T06:17:43.310Z,6.52
2022-09-22T06:20:10.423Z,6.42
2022-09-22T06:22:37.571Z,6.40
2022-09-22T06:25:05.226Z,6.44
2022-09-22T06:27:32.343Z,6.53
2022-09-22T06:29:59.496Z,6.70
2022-09-22T06:32:26.640Z,6.82
2022-09-22T06:34:53.825Z,6.84
2022-09-22T06:37:20.939Z,6.97
2022-09-22T06:39:48.095Z,7.09
2022-09-22T06:45:42.863Z,7.54
2022-09-22T06:48:11.209Z,7.53
2022-09-22T06:50:40.709Z,7.48
2022-09-22T06:53:11.881Z,7.52
2022-09-22T06:55:43.384Z,7.57
2022-09-22T06:58:12.994Z,7.57
2022-09-22T07:00:45.948Z,7.61
2022-09-22T07:03:13.401Z,7.72
2022-09-22T07:05:40.552Z,7.68
2022-09-22T07:08:09.115Z,7.78
2022-09-22T07:10:39.002Z,7.90
2022-09-22T07:13:06.540Z,8.02
2022-09-22T07:15:35.662Z,8.17
2022-09-22T07:18:04.471Z,8.16
2022-09-22T07:20:33.692Z,8.20
2022-09-22T07:23:01.072Z,8.35
2022-09-22T07:25:29.122Z,8.34
2022-09-22T07:28:05.070Z,8.35
2022-09-22T07:30:36.368Z,8.44
2022-09-22T07:33:03.738Z,8.49
2022-09-22T07:35:31.729Z,8.51
2022-09-22T07:38:03.382Z,8.66
2022-09-22T07:40:31.543Z,8.77
2022-09-22T07:42:58.717Z,8.86
2022-09-22T07:45:25.933Z,8.98
2022-09-22T07:48:11.532Z,9.13
2022-09-22T07:50:39.029Z,9.73
2022-09-22T07:53:06.289Z,10.47
2022-09-22T07:55:34.208Z,11.59
2022-09-22T07:58:01.229Z,12.73
2022-09-22T08:00:33.634Z,13.38
2022-09-22T08:03:01.345Z,13.21
2022-09-22T08:05:29.211Z,12.61
2022-09-22T08:07:58.382Z,12.02
2022-09-22T08:10:26.513Z,11.49
2022-09-22T08:12:54.689Z,11.26
2022-09-22T08:15:26.684Z,11.32
2022-09-22T08:18:03.902Z,11.23
2022-09-22T08:20:31.036Z,11.17
2022-09-22T08:22:58.232Z,11.05
2022-09-22T08:25:25.505Z,11.20
2022-09-22T08:27:52.665Z,11.29
2022-09-22T08:30:20.014Z,11.37
2022-09-22T08:32:47.910Z,11.51
2022-09-22T08:35:15.209Z,11.57
2022-09-22T08:37:43.814Z,11.61
2022-09-22T08:40:23.765Z,11.83
2022-09-22T08:42:54.557Z,11.92
2022-09-22T08:45:36.736Z,11.95
2022-09-22T08:48:34.444Z,12.09
2022-09-22T08:51:31.830Z,12.43
2022-09-22T08:54:03.297Z,12.52
2022-09-22T08:56:44.405Z,12.67
2022-09-22T08:59:18.209Z,12.68
2022-09-22T09:01:52.415Z,12.69
2022-09-22T09:04:42.493Z,12.47
2022-09-22T09:07:28.413Z,12.33
2022-09-22T09:10:03.990Z,12.58
2022-09-22T09:12:41.893Z,12.49
2022-09-22T09:15:34.117Z,12.52
2022-09-22T09:18:03.876Z,12.39
2022-09-22T09:20:38.941Z,12.35
2022-09-22T09:23:21.046Z,12.93
2022-09-22T09:25:54.306Z,13.28
2022-09-22T09:28:37.477Z,13.68
2022-09-22T09:31:41.491Z,13.85
2022-09-22T09:34:18.058Z,14.16
2022-09-22T09:36:52.892Z,13.90
2022-09-22T09:39:28.058Z,14.06
2022-09-22T09:41:57.071Z,14.15
2022-09-22T09:44:40.123Z,13.99
2022-09-22T09:47:27.365Z,13.79
2022-09-22T09:49:55.125Z,13.27
2022-09-22T09:52:26.527Z,12.97
2022-09-22T09:54:54.556Z,12.70
2022-09-22T09:57:27.697Z,12.48
2022-09-22T10:00:32.589Z,12.55
2022-09-22T10:03:02.863Z,12.56
2022-09-22T10:05:32.464Z,12.45
2022-09-22T10:08:13.757Z,12.49
2022-09-22T10:10:42.301Z,12.54
2022-09-22T10:13:09.346Z,12.63
2022-09-22T10:15:41.313Z,12.56
2022-09-22T10:18:26.674Z,12.67
2022-09-22T10:21:15.599Z,13.22
2022-09-22T10:23:47.976Z,13.68
2022-09-22T10:26:28.022Z,13.71
2022-09-22T10:29:20.907Z,13.78
2022-09-22T10:32:10.991Z,14.06
2022-09-22T10:34:41.019Z,14.14
2022-09-22T10:37:12.090Z,14.25
2022-09-22T10:39:49.226Z,14.30
2022-09-22T10:42:38.210Z,14.40
2022-09-22T10:45:12.264Z,14.48
2022-09-22T10:47:59.009Z,14.55
2022-09-22T10:50:49.645Z,14.56
2022-09-22T10:53:34.871Z,14.61
2022-09-22T10:56:13.544Z,14.58
2022-09-22T10:58:56.086Z,14.38
2022-09-22T11:02:04.805Z,14.48
2022-09-22T11:04:53.642Z,14.62
2022-09-22T11:08:13.197Z,14.76
2022-09-22T11:11:25.682Z,14.94
2022-09-22T11:14:09.630Z,15.16
2022-09-22T11:16:55.416Z,15.47
2022-09-22T11:19:42.216Z,15.43
2022-09-22T11:22:40.120Z,15.35
2022-09-22T11:25:23.279Z,14.70
2022-09-22T11:28:12.236Z,14.26
2022-09-22T11:30:47.225Z,13.77
2022-09-22T11:33:24.714Z,13.48
2022-09-22T11:36:15.105Z,12.85
2022-09-22T11:39:10.246Z,12.55
2022-09-22T11:41:43.967Z,12.54
2022-09-22T11:44:39.016Z,12.52
2022-09-22T11:47:25.331Z,12.34
2022-09-22T11:50:30.408Z,12.35
2022-09-22T11:53:28.960Z,12.35
2022-09-22T11:56:33.651Z,12.26
2022-09-22T11:59:10.529Z,12.22
2022-09-22T12:01:38.997Z,12.23
2022-09-22T12:04:21.902Z,12.17
2022-09-22T12:06:54.556Z,12.16
2022-09-22T12:09:28.798Z,12.15
2022-09-22T12:11:59.272Z,12.16
2022-09-22T12:14:27.658Z,12.23
2022-09-22T12:16:54.745Z,12.25
2022-09-22T12:19:43.290Z,12.14
2022-09-22T12:22:25.792Z,12.14
2022-09-22T12:24:52.928Z,12.09
2022-09-22T12:27:25.186Z,12.10
2022-09-22T12:29:58.034Z,12.09
2022-09-22T12:32:34.610Z,12.18
2022-09-22T12:35:02.542Z,12.29
2022-09-22T12:37:34.410Z,12.35
2022-09-22T12:40:13.635Z,12.37
2022-09-22T12:42:43.399Z,12.45
2022-09-22T12:45:29.060Z,12.52
2022-09-22T12:47:57.962Z,12.90
2022-09-22T12:50:24.999Z,13.22
2022-09-22T12:52:52.057Z,13.54
2022-09-22T12:55:28.503Z,13.59
2022-09-22T12:58:01.358Z,13.89
2022-09-22T13:00:33.061Z,13.96
2022-09-22T13:03:01.736Z,14.10
2022-09-22T13:05:28.850Z,13.90
2022-09-22T13:07:55.992Z,14.05
2022-09-22T13:10:23.176Z,14.17
2022-09-22T13:13:05.831Z,14.00
2022-09-22T13:15:51.230Z,14.02
2022-09-22T13:18:41.727Z,14.08
2022-09-22T13:21:14.749Z,14.14
2022-09-22T13:23:51.632Z,14.09
2022-09-22T13:26:24.750Z,14.14
2022-09-22T13:29:15.692Z,14.24
2022-09-22T13:31:51.188Z,14.00
2022-09-22T13:34:27.450Z,13.77
2022-09-22T13:37:00.789Z,13.48
2022-09-22T13:39:32.089Z,13.20
2022-09-22T13:42:05.094Z,13.05
2022-09-22T13:44:34.782Z,12.72
2022-09-22T13:47:06.976Z,12.53
2022-09-22T13:49:44.353Z,12.35
2022-09-22T13:52:19.149Z,12.36
2022-09-22T13:54:51.258Z,12.62
2022-09-22T13:57:22.454Z,13.15
2022-09-22T13:59:52.399Z,13.47
2022-09-22T14:02:30.678Z,13.80
2022-09-22T14:05:08.946Z,13.95
2022-09-22T14:07:49.460Z,13.97
2022-09-22T14:10:23.191Z,14.01
2022-09-22T14:12:51.304Z,14.10
2022-09-22T14:15:37.323Z,14.06
2022-09-22T14:18:26.005Z,14.10
2022-09-22T14:20:55.847Z,14.13
2022-09-22T14:23:30.754Z,14.22
2022-09-22T14:26:00.587Z,14.25
2022-09-22T14:28:31.830Z,14.26
2022-09-22T14:30:59.073Z,14.31
2022-09-22T14:33:31.088Z,14.32
2022-09-22T14:36:01.744Z,14.32
2022-09-22T14:38:30.464Z,14.47
2022-09-22T14:41:02.875Z,14.45
2022-09-22T14:43:42.378Z,14.37
2022-09-22T14:46:40.205Z,14.39
2022-09-22T14:49:43.179Z,14.44
2022-09-22T14:52:23.302Z,14.43
2022-09-22T14:54:51.183Z,14.33
2022-09-22T14:57:18.353Z,14.36
2022-09-22T15:00:11.963Z,14.36
2022-09-22T15:02:41.622Z,14.26
2022-09-22T15:05:11.913Z,14.25
2022-09-22T15:07:45.077Z,14.11
2022-09-22T15:10:26.873Z,14.18
2022-09-22T15:12:55.989Z,14.18
2022-09-22T15:15:29.248Z,14.25
2022-09-22T15:18:19.482Z,14.22
2022-09-22T15:20:50.365Z,14.20
2022-09-22T15:23:21.308Z,14.22
2022-09-22T15:25:49.770Z,14.22
2022-09-22T15:28:20.195Z,14.19
2022-09-22T15:30:48.708Z,14.16
2022-09-22T15:33:17.107Z,14.23
2022-09-22T15:35:47.097Z,14.04
2022-09-22T15:38:21.172Z,13.85
2022-09-22T15:40:48.319Z,13.74
2022-09-22T15:43:20.846Z,13.74
2022-09-22T15:45:51.579Z,13.69
2022-09-22T15:48:23.437Z,13.65
2022-09-22T15:50:51.373Z,13.58
2022-09-22T15:53:18.401Z,13.57
2022-09-22T15:55:45.418Z,13.42
2022-09-22T15:58:15.906Z,13.24
2022-09-22T16:00:43.051Z,13.18
2022-09-22T16:03:15.386Z,13.08
2022-09-22T16:05:43.610Z,13.00
2022-09-22T16:08:14.739Z,13.01
2022-09-22T16:10:44.269Z,13.05
2022-09-22T16:13:12.427Z,13.04
2022-09-22T16:15:40.049Z,12.92
2022-09-22T16:18:08.595Z,12.90
2022-09-22T16:20:37.390Z,12.88
2022-09-22T16:23:06.607Z,12.93
2022-09-22T16:25:33.838Z,13.08
2022-09-22T16:28:01.269Z,13.10
2022-09-22T16:30:28.575Z,13.09
2022-09-22T16:32:55.953Z,13.03
2022-09-22T16:35:24.365Z,12.93
2022-09-22T16:37:55.874Z,12.78
2022-09-22T16:40:24.369Z,12.64
2022-09-22T16:42:52.135Z,12.54
2022-09-22T16:45:39.375Z,12.41
2022-09-22T16:48:07.397Z,12.40
2022-09-22T16:50:37.091Z,12.32
2022-09-22T16:53:07.056Z,12.25
2022-09-22T16:55:37.328Z,12.10
2022-09-22T16:58:08.265Z,11.97
2022-09-22T17:00:35.971Z,11.85
2022-09-22T17:03:03.152Z,11.75
2022-09-22T17:05:34.768Z,11.62
2022-09-22T17:08:06.474Z,11.49
2022-09-22T17:10:35.873Z,11.41
2022-09-22T17:13:04.867Z,11.45
2022-09-22T17:15:36.205Z,11.40
2022-09-22T17:18:03.938Z,11.31
2022-09-22T17:20:31.477Z,11.19
2022-09-22T17:22:58.809Z,11.12
2022-09-22T17:25:29.184Z,11.12
2022-09-22T17:27:56.864Z,11.06
2022-09-22T17:30:24.040Z,10.95
2022-09-22T17:32:51.279Z,10.75
2022-09-22T17:35:18.860Z,10.71
2022-09-22T17:37:47.284Z,10.60
2022-09-22T17:40:14.706Z,10.49
2022-09-22T17:42:41.819Z,10.38
2022-09-22T17:45:09.576Z,10.30
2022-09-22T17:47:55.038Z,10.23
2022-09-22T17:50:43.746Z,10.23
2022-09-22T17:53:29.905Z,10.15
2022-09-22T17:55:59.415Z,10.11
2022-09-22T17:58:26.644Z,10.08
2022-09-22T18:00:53.742Z,10.00
2022-09-22T18:03:20.785Z,9.96
2022-09-22T18:05:52.451Z,10.02
2022-09-22T18:08:19.765Z,10.01
2022-09-22T18:10:47.240Z,10.04
2022-09-22T18:13:14.490Z,10.02
2022-09-22T18:15:42.006Z,9.95
2022-09-22T18:18:09.256Z,9.93
2022-09-22T18:20:36.493Z,9.88
2022-09-22T18:23:03.948Z,9.87
2022-09-22T18:25:33.869Z,9.82
2022-09-22T18:28:01.258Z,9.81
2022-09-22T18:30:28.457Z,9.88
2022-09-22T18:32:56.327Z,9.90
2022-09-22T18:35:24.745Z,9.93
2022-09-22T18:37:51.852Z,9.99
2022-09-22T18:40:19.066Z,9.96
2022-09-22T18:42:46.210Z,9.93
2022-09-22T18:45:14.487Z,9.87
2022-09-22T18:47:43.497Z,9.94
2022-09-22T18:50:11.812Z,9.95
2022-09-22T18:52:42.746Z,9.89
2022-09-22T18:55:11.997Z,9.89
2022-09-22T18:57:39.139Z,9.95
2022-09-22T19:00:06.979Z,10.01
2022-09-22T19:02:34.230Z,9.93
2022-09-22T19:05:01.569Z,9.84
2022-09-22T19:07:41.374Z,9.83
2022-09-22T19:10:12.267Z,9.83
2022-09-22T19:12:39.706Z,9.75
2022-09-22T19:15:13.598Z,9.79
2022-09-22T19:17:44.142Z,9.79
2022-09-22T19:20:17.867Z,9.82
2022-09-22T19:22:45.806Z,9.96
2022-09-22T19:25:13.279Z,9.97
2022-09-22T19:27:40.530Z,9.91
2022-09-22T19:30:09.878Z,9.85
2022-09-22T19:32:37.735Z,9.81
2022-09-22T19:35:06.516Z,9.86
2022-09-22T19:37:34.054Z,9.87
2022-09-22T19:40:02.231Z,9.81
2022-09-22T19:42:29.294Z,9.75
2022-09-22T19:44:56.724Z,9.77
2022-09-22T19:47:23.844Z,9.71
2022-09-22T19:49:51.263Z,9.59
2022-09-22T19:52:18.492Z,9.53
2022-09-22T19:54:45.780Z,9.45
2022-09-22T19:57:13.513Z,9.36
2022-09-22T19:59:40.740Z,9.27
2022-09-22T20:02:13.274Z,9.20
2022-09-22T20:04:41.358Z,9.08
2022-09-22T20:07:10.965Z,9.04
2022-09-22T20:09:38.763Z,8.93
2022-09-22T20:12:06.543Z,8.86
2022-09-22T20:14:33.776Z,8.77
2022-09-22T20:17:03.798Z,8.79
2022-09-22T20:19:33.727Z,8.69
2022-09-22T20:22:25.633Z,8.69
2022-09-22T20:24:58.594Z,8.70
2022-09-22T20:27:35.264Z,8.72
2022-09-22T20:30:03.892Z,8.75
2022-09-22T20:32:32.269Z,8.65
2022-09-22T20:34:59.405Z,8.68
2022-09-22T20:37:26.564Z,8.87
2022-09-22T20:39:53.818Z,8.81
2022-09-22T20:42:21.346Z,8.74
2022-09-22T20:44:49.223Z,8.62
2022-09-22T20:47:18.669Z,8.62
2022-09-22T20:49:51.267Z,8.50
2022-09-22T20:52:20.165Z,8.43
2022-09-22T20:54:48.266Z,8.33
2022-09-22T20:57:16.110Z,8.19
2022-09-22T20:59:47.504Z,8.09
2022-09-22T21:02:15.351Z,8.06
2022-09-22T21:04:42.591Z,7.92
2022-09-22T21:07:11.353Z,7.83
2022-09-22T21:10:17.078Z,7.90
2022-09-22T21:12:44.354Z,7.85
2022-09-22T21:15:11.699Z,7.84
2022-09-22T21:17:43.274Z,7.77
2022-09-22T21:20:11.263Z,7.66
2022-09-22T21:22:38.769Z,7.58
2022-09-22T21:25:06.151Z,7.45
2022-09-22T21:27:33.317Z,7.50
2022-09-22T21:30:00.463Z,7.42
2022-09-22T21:32:27.667Z,7.37
2022-09-22T21:34:56.285Z,7.38
2022-09-22T21:37:24.892Z,7.30
2022-09-22T21:39:52.150Z,7.25
2022-09-22T21:42:19.929Z,7.23
2022-09-22T21:44:48.581Z,7.14
2022-09-22T21:47:15.700Z,7.16
2022-09-22T21:49:42.974Z,7.14
2022-09-22T21:52:10.198Z,7.20
2022-09-22T21:54:37.556Z,7.26
2022-09-22T21:57:04.854Z,7.18
2022-09-22T21:59:31.961Z,7.12
2022-09-22T22:01:59.691Z,7.14
2022-09-22T22:04:27.008Z,7.10
2022-09-22T22:06:55.022Z,7.09
2022-09-22T22:09:24.203Z,7.04
2022-09-22T22:11:55.425Z,6.96
2022-09-22T22:14:24.768Z,6.94
2022-09-22T22:16:54.229Z,7.01
2022-09-22T22:19:24.849Z,6.88
2022-09-22T22:21:52.420Z,6.81
2022-09-22T22:24:28.915Z,6.79
2022-09-22T22:27:07.924Z,6.67
2022-09-22T22:29:36.426Z,6.65
2022-09-22T22:32:07.796Z,6.58
2022-09-22T22:34:35.298Z,6.60
2022-09-22T22:37:04.618Z,6.61
2022-09-22T22:39:32.582Z,6.58
2022-09-22T22:41:59.571Z,6.44
2022-09-22T22:44:26.634Z,6.43
2022-09-22T22:46:53.926Z,6.41
2022-09-22T22:49:21.097Z,6.36
2022-09-22T22:51:49.508Z,6.30
2022-09-22T22:54:17.140Z,6.31
2022-09-22T22:56:47.750Z,6.34
2022-09-22T22:59:18.190Z,6.30
2022-09-22T23:01:45.330Z,6.36
2022-09-22T23:04:12.698Z,6.35
2022-09-22T23:06:44.044Z,6.32
2022-09-22T23:09:14.493Z,6.27
2022-09-22T23:11:42.625Z,6.27
2022-09-22T23:14:11.831Z,6.27
2022-09-22T23:16:41.531Z,6.27
2022-09-22T23:19:12.558Z,6.28
2022-09-22T23:21:40.364Z,6.22
2022-09-22T23:24:08.417Z,6.20
2022-09-22T23:26:37.327Z,6.13
2022-09-22T23:29:06.047Z,6.05
2022-09-22T23:31:33.570Z,6.07
2022-09-22T23:34:01.330Z,6.04
2022-09-22T23:36:29.535Z,6.09
2022-09-22T23:39:04.012Z,5.95
2022-09-22T23:41:36.540Z,5.88
2022-09-22T23:44:06.812Z,5.98
2022-09-22T23:46:34.722Z,5.97
2022-09-22T23:49:02.445Z,5.96
2022-09-22T23:51:30.089Z,5.99
2022-09-22T23:53:57.409Z,5.96
2022-09-22T23:56:25.169Z,5.90
2022-09-22T23:58:52.870Z,5.93
